Campeche Bay — P3ZF9 — position and weather

sailwx.info

Track history (hours):
 
Tides and Currents Weather Stations Pressure Air Temp Water Temp Dewpoint Dewpoint Depression Visibility Wind Speed Wind Dir Waves Ship Positions

Campeche Bay

Last reported at 2018-Apr-18 17:18 UTC. Time now 2018-Apr-20 11:01 UTC.
Position N 26°45' W 085°29'.

Length 90 m; draft 4.5 m.

Type: Cargo ship. MMSI: 209641000.

Date/timePositionNaut miles runAvg speedWind from/ knotsBaromVisibWave heightAir tempDewpointWater temp
2018-Apr-18 17:18N 26°45' W 085°29'150 9.3
2018-Apr-18 01:16N 27°37' W 082°51'1910.2
2018-Apr-17 23:26N 27°44' W 082°32'4 9.7
2018-Apr-17 23:00N 27°47' W 082°30'5 9.1
2018-Apr-17 22:30N 27°51' W 082°27'4 7.6
2018-Apr-17 22:00N 27°55' W 082°26'0 0.0
2018-Apr-17 21:28N 27°55' W 082°26'0 0.0
2018-Apr-17 20:58N 27°55' W 082°26'0 0.0
2018-Apr-17 20:28N 27°55' W 082°26'0 0.0
2018-Apr-17 19:58N 27°55' W 082°26'0 0.0
2018-Apr-17 19:28N 27°55' W 082°26'0 0.0
2018-Apr-17 18:58N 27°55' W 082°26'0 0.0
2018-Apr-17 18:28N 27°55' W 082°26'0 0.0
2018-Apr-17 17:58N 27°55' W 082°26'0 0.0
2018-Apr-17 17:28N 27°55' W 082°26'0 0.0
2018-Apr-17 16:58N 27°55' W 082°26'0 0.0
2018-Apr-17 16:28N 27°55' W 082°26'0 0.0
2018-Apr-17 15:58N 27°55' W 082°26'0 0.0
2018-Apr-17 15:28N 27°55' W 082°26'0 0.0
2018-Apr-17 15:00N 27°55' W 082°26'0 0.2
2018-Apr-17 14:30N 27°55' W 082°26'2 3.3
2018-Apr-17 14:00N 27°53' W 082°26'4 8.5
2018-Apr-17 13:30N 27°49' W 082°27'4 8.7
2018-Apr-17 13:00N 27°47' W 082°31'4 8.3
2018-Apr-17 12:30N 27°43' W 082°33'6 7.9
2018-Apr-17 11:44N 27°38' W 082°37'2 8.1
2018-Apr-17 11:27N 27°37' W 082°40'  
Track history (hours):
 
Tides and Currents Weather Stations Pressure Air Temp Water Temp Dewpoint Dewpoint Depression Visibility Wind Speed Wind Dir Waves Ship Positions

Campeche Bay

Last reported at 2018-Apr-18 17:18 UTC. Time now 2018-Apr-20 11:01 UTC.
Position N 26°45' W 085°29'.

Length 90 m; draft 4.5 m.

Type: Cargo ship. MMSI: 209641000.

Date/timePositionNaut miles runAvg speedWind from/ knotsBaromVisibWave heightAir tempDewpointWater temp
2018-Apr-18 17:18N 26°45' W 085°29'150 9.3
2018-Apr-18 01:16N 27°37' W 082°51'1910.2
2018-Apr-17 23:26N 27°44' W 082°32'4 9.7
2018-Apr-17 23:00N 27°47' W 082°30'5 9.1
2018-Apr-17 22:30N 27°51' W 082°27'4 7.6
2018-Apr-17 22:00N 27°55' W 082°26'0 0.0
2018-Apr-17 21:28N 27°55' W 082°26'0 0.0
2018-Apr-17 20:58N 27°55' W 082°26'0 0.0
2018-Apr-17 20:28N 27°55' W 082°26'0 0.0
2018-Apr-17 19:58N 27°55' W 082°26'0 0.0
2018-Apr-17 19:28N 27°55' W 082°26'0 0.0
2018-Apr-17 18:58N 27°55' W 082°26'0 0.0
2018-Apr-17 18:28N 27°55' W 082°26'0 0.0
2018-Apr-17 17:58N 27°55' W 082°26'0 0.0
2018-Apr-17 17:28N 27°55' W 082°26'0 0.0
2018-Apr-17 16:58N 27°55' W 082°26'0 0.0
2018-Apr-17 16:28N 27°55' W 082°26'0 0.0
2018-Apr-17 15:58N 27°55' W 082°26'0 0.0
2018-Apr-17 15:28N 27°55' W 082°26'0 0.0
2018-Apr-17 15:00N 27°55' W 082°26'0 0.2
2018-Apr-17 14:30N 27°55' W 082°26'2 3.3
2018-Apr-17 14:00N 27°53' W 082°26'4 8.5
2018-Apr-17 13:30N 27°49' W 082°27'4 8.7
2018-Apr-17 13:00N 27°47' W 082°31'4 8.3
2018-Apr-17 12:30N 27°43' W 082°33'6 7.9
2018-Apr-17 11:44N 27°38' W 082°37'2 8.1
2018-Apr-17 11:27N 27°37' W 082°40'  

Dump ship's entire track history